sensor_id;sensor_type;location;lat;lon;timestamp;temperature;humidity
935;DHT22;454;53.254;10.400;2023-12-20T05:00:39;6.10;99.90
935;DHT22;454;53.254;10.400;2023-12-20T05:03:05;6.10;99.90
935;DHT22;454;53.254;10.400;2023-12-20T05:05:33;6.10;99.90
935;DHT22;454;53.254;10.400;2023-12-20T05:08:00;6.10;99.90
935;DHT22;454;53.254;10.400;2023-12-20T05:10:26;6.20;99.90
935;DHT22;454;53.254;10.400;2023-12-20T05:12:53;6.20;99.90
935;DHT22;454;53.254;10.400;2023-12-20T05:15:20;6.20;99.90
935;DHT22;454;53.254;10.400;2023-12-20T05:17:48;6.20;99.90
935;DHT22;454;53.254;10.400;2023-12-20T05:20:14;6.20;99.90
935;DHT22;454;53.254;10.400;2023-12-20T05:22:41;6.20;99.90
935;DHT22;454;53.254;10.400;2023-12-20T05:25:08;6.20;99.90
935;DHT22;454;53.254;10.400;2023-12-20T05:27:34;6.20;99.90
935;DHT22;454;53.254;10.400;2023-12-20T05:30:01;6.30;99.90
935;DHT22;454;53.254;10.400;2023-12-20T05:32:30;6.30;99.90
935;DHT22;454;53.254;10.400;2023-12-20T05:34:58;6.30;99.90
935;DHT22;454;53.254;10.400;2023-12-20T05:37:25;6.30;99.90
935;DHT22;454;53.254;10.400;2023-12-20T05:39:51;6.30;99.90
935;DHT22;454;53.254;10.400;2023-12-20T05:42:18;6.30;99.90
935;DHT22;454;53.254;10.400;2023-12-20T05:44:45;6.30;99.90
935;DHT22;454;53.254;10.400;2023-12-20T05:47:11;6.30;99.90
935;DHT22;454;53.254;10.400;2023-12-20T05:49:38;6.30;99.90
935;DHT22;454;53.254;10.400;2023-12-20T05:52:06;6.30;99.90
935;DHT22;454;53.254;10.400;2023-12-20T05:54:33;6.30;99.90
935;DHT22;454;53.254;10.400;2023-12-20T05:57:00;6.30;99.90
935;DHT22;454;53.254;10.400;2023-12-20T05:59:26;6.30;99.90
935;DHT22;454;53.254;10.400;2023-12-20T06:01:53;6.30;99.90
935;DHT22;454;53.254;10.400;2023-12-20T06:04:20;6.30;99.90
935;DHT22;454;53.254;10.400;2023-12-20T06:06:46;6.40;99.90
935;DHT22;454;53.254;10.400;2023-12-20T06:09:15;6.40;99.90
935;DHT22;454;53.254;10.400;2023-12-20T06:11:42;6.40;99.90
935;DHT22;454;53.254;10.400;2023-12-20T06:14:09;6.40;99.90
935;DHT22;454;53.254;10.400;2023-12-20T06:16:36;6.40;99.90
935;DHT22;454;53.254;10.400;2023-12-20T06:19:02;6.40;99.90
935;DHT22;454;53.254;10.400;2023-12-20T06:21:29;6.40;99.90
935;DHT22;454;53.254;10.400;2023-12-20T06:23:56;6.40;99.90
935;DHT22;454;53.254;10.400;2023-12-20T06:26:24;6.40;99.90
935;DHT22;454;53.254;10.400;2023-12-20T06:28:51;6.40;99.90
935;DHT22;454;53.254;10.400;2023-12-20T06:31:17;6.40;99.90
935;DHT22;454;53.254;10.400;2023-12-20T06:33:44;6.40;99.90
935;DHT22;454;53.254;10.400;2023-12-20T06:36:11;6.40;99.90
935;DHT22;454;53.254;10.400;2023-12-20T06:38:38;6.40;99.90
935;DHT22;454;53.254;10.400;2023-12-20T06:41:05;6.40;99.90
935;DHT22;454;53.254;10.400;2023-12-20T06:43:33;6.40;99.90
935;DHT22;454;53.254;10.400;2023-12-20T06:46:00;6.40;99.90
935;DHT22;454;53.254;10.400;2023-12-20T06:48:27;6.50;99.90
935;DHT22;454;53.254;10.400;2023-12-20T06:50:54;6.50;99.90
935;DHT22;454;53.254;10.400;2023-12-20T06:53:21;6.50;99.90
935;DHT22;454;53.254;10.400;2023-12-20T06:55:48;6.50;99.90
935;DHT22;454;53.254;10.400;2023-12-20T06:58:15;6.50;99.90
935;DHT22;454;53.254;10.400;2023-12-20T07:00:43;6.50;99.90
935;DHT22;454;53.254;10.400;2023-12-20T07:03:10;6.50;99.90
935;DHT22;454;53.254;10.400;2023-12-20T07:05:36;6.50;99.90
935;DHT22;454;53.254;10.400;2023-12-20T07:08:04;6.50;99.90
935;DHT22;454;53.254;10.400;2023-12-20T07:10:30;6.50;99.90
935;DHT22;454;53.254;10.400;2023-12-20T07:12:57;6.40;99.90
935;DHT22;454;53.254;10.400;2023-12-20T07:15:24;6.50;99.90
935;DHT22;454;53.254;10.400;2023-12-20T07:17:53;6.50;99.90
935;DHT22;454;53.254;10.400;2023-12-20T07:20:20;6.50;99.90
935;DHT22;454;53.254;10.400;2023-12-20T07:22:47;6.50;99.90
935;DHT22;454;53.254;10.400;2023-12-20T07:25:13;6.50;99.90
935;DHT22;454;53.254;10.400;2023-12-20T07:27:40;6.50;99.90
935;DHT22;454;53.254;10.400;2023-12-20T07:30:08;6.50;99.90
935;DHT22;454;53.254;10.400;2023-12-20T07:32:35;6.50;99.90
935;DHT22;454;53.254;10.400;2023-12-20T07:35:03;6.50;99.90
935;DHT22;454;53.254;10.400;2023-12-20T07:37:31;6.50;99.90
935;DHT22;454;53.254;10.400;2023-12-20T07:39:57;6.50;99.90
935;DHT22;454;53.254;10.400;2023-12-20T07:42:24;6.50;99.90
935;DHT22;454;53.254;10.400;2023-12-20T07:44:51;6.50;99.90
935;DHT22;454;53.254;10.400;2023-12-20T07:47:17;6.60;99.90
935;DHT22;454;53.254;10.400;2023-12-20T07:49:47;6.60;99.90
935;DHT22;454;53.254;10.400;2023-12-20T07:52:15;6.50;99.90
935;DHT22;454;53.254;10.400;2023-12-20T07:54:42;6.60;99.90
935;DHT22;454;53.254;10.400;2023-12-20T07:57:08;6.60;99.90
935;DHT22;454;53.254;10.400;2023-12-20T07:59:36;6.60;99.90
935;DHT22;454;53.254;10.400;2023-12-20T08:02:02;6.50;99.90
935;DHT22;454;53.254;10.400;2023-12-20T08:04:29;6.60;99.90
935;DHT22;454;53.254;10.400;2023-12-20T08:06:56;6.60;99.90
935;DHT22;454;53.254;10.400;2023-12-20T08:09:24;6.60;99.90
935;DHT22;454;53.254;10.400;2023-12-20T08:11:51;6.60;99.90
935;DHT22;454;53.254;10.400;2023-12-20T08:14:17;6.60;99.90
935;DHT22;454;53.254;10.400;2023-12-20T08:16:44;6.60;99.90
935;DHT22;454;53.254;10.400;2023-12-20T08:19:11;6.70;99.90
935;DHT22;454;53.254;10.400;2023-12-20T08:21:37;6.70;99.90
935;DHT22;454;53.254;10.400;2023-12-20T08:24:05;6.60;99.90
935;DHT22;454;53.254;10.400;2023-12-20T08:26:33;6.60;99.90
935;DHT22;454;53.254;10.400;2023-12-20T08:29:00;6.60;99.90
935;DHT22;454;53.254;10.400;2023-12-20T08:31:27;6.60;99.90
935;DHT22;454;53.254;10.400;2023-12-20T08:33:54;6.60;99.90
935;DHT22;454;53.254;10.400;2023-12-20T08:36:21;6.60;99.90
935;DHT22;454;53.254;10.400;2023-12-20T08:38:48;6.60;99.90
935;DHT22;454;53.254;10.400;2023-12-20T08:41:16;6.60;99.90
935;DHT22;454;53.254;10.400;2023-12-20T08:43:44;6.60;99.90
935;DHT22;454;53.254;10.400;2023-12-20T08:46:11;6.70;99.90
935;DHT22;454;53.254;10.400;2023-12-20T08:48:38;6.70;99.90
935;DHT22;454;53.254;10.400;2023-12-20T08:51:04;6.70;99.90
935;DHT22;454;53.254;10.400;2023-12-20T08:53:32;6.70;99.90
935;DHT22;454;53.254;10.400;2023-12-20T08:55:59;6.70;99.90
935;DHT22;454;53.254;10.400;2023-12-20T08:58:27;6.80;99.90
935;DHT22;454;53.254;10.400;2023-12-20T09:00:55;6.80;99.90
935;DHT22;454;53.254;10.400;2023-12-20T09:03:22;6.80;99.90
935;DHT22;454;53.254;10.400;2023-12-20T09:05:49;6.90;99.90
935;DHT22;454;53.254;10.400;2023-12-20T09:08:16;6.90;99.90
935;DHT22;454;53.254;10.400;2023-12-20T09:10:43;6.90;99.90
935;DHT22;454;53.254;10.400;2023-12-20T09:13:10;7.00;99.90
935;DHT22;454;53.254;10.400;2023-12-20T09:15:36;7.00;99.90
935;DHT22;454;53.254;10.400;2023-12-20T09:18:05;7.00;99.90
935;DHT22;454;53.254;10.400;2023-12-20T09:20:32;7.00;99.90
935;DHT22;454;53.254;10.400;2023-12-20T09:22:58;7.00;99.90
935;DHT22;454;53.254;10.400;2023-12-20T09:25:25;7.00;99.90
935;DHT22;454;53.254;10.400;2023-12-20T09:27:52;6.90;99.90
935;DHT22;454;53.254;10.400;2023-12-20T09:30:19;6.90;99.90
935;DHT22;454;53.254;10.400;2023-12-20T09:32:45;6.90;99.90
935;DHT22;454;53.254;10.400;2023-12-20T09:35:14;6.80;99.90
935;DHT22;454;53.254;10.400;2023-12-20T09:37:40;6.80;99.90
935;DHT22;454;53.254;10.400;2023-12-20T09:40:11;6.70;99.90
935;DHT22;454;53.254;10.400;2023-12-20T09:42:44;6.70;99.90
935;DHT22;454;53.254;10.400;2023-12-20T09:45:15;6.70;99.90
935;DHT22;454;53.254;10.400;2023-12-20T09:47:42;6.70;99.90
935;DHT22;454;53.254;10.400;2023-12-20T09:50:09;6.70;99.90
935;DHT22;454;53.254;10.400;2023-12-20T09:52:39;6.70;99.90
935;DHT22;454;53.254;10.400;2023-12-20T09:55:07;6.70;99.90
935;DHT22;454;53.254;10.400;2023-12-20T09:57:35;6.70;99.90
935;DHT22;454;53.254;10.400;2023-12-20T10:00:02;6.70;99.90
935;DHT22;454;53.254;10.400;2023-12-20T10:02:29;6.70;99.90
935;DHT22;454;53.254;10.400;2023-12-20T10:04:57;6.70;99.90
935;DHT22;454;53.254;10.400;2023-12-20T10:07:25;6.60;99.90
935;DHT22;454;53.254;10.400;2023-12-20T10:09:54;6.40;99.90
935;DHT22;454;53.254;10.400;2023-12-20T10:12:21;6.30;99.90
935;DHT22;454;53.254;10.400;2023-12-20T10:14:48;6.20;99.90
935;DHT22;454;53.254;10.400;2023-12-20T10:17:14;6.20;99.90
935;DHT22;454;53.254;10.400;2023-12-20T10:19:43;6.20;99.90
935;DHT22;454;53.254;10.400;2023-12-20T10:22:10;6.20;99.90
935;DHT22;454;53.254;10.400;2023-12-20T10:24:37;6.30;99.90
935;DHT22;454;53.254;10.400;2023-12-20T10:27:06;6.30;99.90
935;DHT22;454;53.254;10.400;2023-12-20T10:29:33;6.30;99.90
935;DHT22;454;53.254;10.400;2023-12-20T10:32:21;6.30;99.90
935;DHT22;454;53.254;10.400;2023-12-20T10:34:49;6.40;99.90
935;DHT22;454;53.254;10.400;2023-12-20T10:37:15;6.40;99.90
935;DHT22;454;53.254;10.400;2023-12-20T10:39:43;6.40;99.90
935;DHT22;454;53.254;10.400;2023-12-20T10:42:12;6.40;99.90
935;DHT22;454;53.254;10.400;2023-12-20T10:44:38;6.40;99.90
935;DHT22;454;53.254;10.400;2023-12-20T10:47:06;6.40;99.90
935;DHT22;454;53.254;10.400;2023-12-20T10:49:36;6.40;99.90
935;DHT22;454;53.254;10.400;2023-12-20T10:52:04;6.40;99.90
935;DHT22;454;53.254;10.400;2023-12-20T10:54:32;6.40;99.90
935;DHT22;454;53.254;10.400;2023-12-20T10:57:00;6.40;99.90
935;DHT22;454;53.254;10.400;2023-12-20T10:59:33;6.40;99.90
935;DHT22;454;53.254;10.400;2023-12-20T11:02:02;6.40;99.90
935;DHT22;454;53.254;10.400;2023-12-20T11:04:36;6.40;99.90
935;DHT22;454;53.254;10.400;2023-12-20T11:07:10;6.40;99.90
935;DHT22;454;53.254;10.400;2023-12-20T11:09:47;6.30;99.90
935;DHT22;454;53.254;10.400;2023-12-20T11:12:20;6.30;99.90
935;DHT22;454;53.254;10.400;2023-12-20T11:14:50;6.30;99.90
935;DHT22;454;53.254;10.400;2023-12-20T11:17:17;6.30;99.90
935;DHT22;454;53.254;10.400;2023-12-20T11:20:07;6.30;99.90
935;DHT22;454;53.254;10.400;2023-12-20T11:22:36;6.30;99.90
935;DHT22;454;53.254;10.400;2023-12-20T11:25:04;6.40;99.90
935;DHT22;454;53.254;10.400;2023-12-20T11:27:32;6.40;99.90
935;DHT22;454;53.254;10.400;2023-12-20T11:30:02;6.40;99.90
935;DHT22;454;53.254;10.400;2023-12-20T11:32:31;6.40;99.90
935;DHT22;454;53.254;10.400;2023-12-20T11:35:01;6.40;99.90
935;DHT22;454;53.254;10.400;2023-12-20T11:37:42;6.40;99.90
935;DHT22;454;53.254;10.400;2023-12-20T11:40:12;6.40;99.90
935;DHT22;454;53.254;10.400;2023-12-20T11:42:41;6.40;99.90
935;DHT22;454;53.254;10.400;2023-12-20T11:45:10;6.50;99.90
935;DHT22;454;53.254;10.400;2023-12-20T11:47:39;6.50;99.90
935;DHT22;454;53.254;10.400;2023-12-20T11:50:07;6.50;99.90
935;DHT22;454;53.254;10.400;2023-12-20T11:52:33;6.50;99.90
935;DHT22;454;53.254;10.400;2023-12-20T11:55:01;6.50;99.90
935;DHT22;454;53.254;10.400;2023-12-20T11:57:29;6.50;99.90
935;DHT22;454;53.254;10.400;2023-12-20T11:59:56;6.40;99.90
935;DHT22;454;53.254;10.400;2023-12-20T12:02:24;6.40;99.90
935;DHT22;454;53.254;10.400;2023-12-20T12:04:51;6.50;99.90
935;DHT22;454;53.254;10.400;2023-12-20T12:07:18;6.60;99.90
935;DHT22;454;53.254;10.400;2023-12-20T12:09:45;6.60;99.90
935;DHT22;454;53.254;10.400;2023-12-20T12:12:12;6.70;99.90
935;DHT22;454;53.254;10.400;2023-12-20T12:14:39;6.70;99.90
935;DHT22;454;53.254;10.400;2023-12-20T12:17:10;6.70;99.90
935;DHT22;454;53.254;10.400;2023-12-20T12:19:39;6.70;99.90
935;DHT22;454;53.254;10.400;2023-12-20T12:22:06;6.70;99.90
935;DHT22;454;53.254;10.400;2023-12-20T12:24:35;6.80;99.90
935;DHT22;454;53.254;10.400;2023-12-20T12:27:02;6.80;99.90
935;DHT22;454;53.254;10.400;2023-12-20T12:29:29;6.90;99.90
935;DHT22;454;53.254;10.400;2023-12-20T12:31:56;6.90;99.90
935;DHT22;454;53.254;10.400;2023-12-20T12:34:23;6.90;99.90
935;DHT22;454;53.254;10.400;2023-12-20T12:36:53;6.90;99.90
935;DHT22;454;53.254;10.400;2023-12-20T12:39:20;6.90;99.90
935;DHT22;454;53.254;10.400;2023-12-20T12:41:46;6.90;99.90
935;DHT22;454;53.254;10.400;2023-12-20T12:44:13;6.90;99.90
935;DHT22;454;53.254;10.400;2023-12-20T12:46:40;6.80;99.90
935;DHT22;454;53.254;10.400;2023-12-20T12:49:07;6.80;99.90
935;DHT22;454;53.254;10.400;2023-12-20T12:51:34;6.80;99.90
935;DHT22;454;53.254;10.400;2023-12-20T12:54:02;6.80;99.90
935;DHT22;454;53.254;10.400;2023-12-20T12:56:29;6.80;99.90
935;DHT22;454;53.254;10.400;2023-12-20T12:58:56;6.80;99.90
935;DHT22;454;53.254;10.400;2023-12-20T13:01:22;6.70;99.90
935;DHT22;454;53.254;10.400;2023-12-20T13:03:49;6.70;99.90
935;DHT22;454;53.254;10.400;2023-12-20T13:06:16;6.70;99.90
935;DHT22;454;53.254;10.400;2023-12-20T13:08:43;6.60;99.90
935;DHT22;454;53.254;10.400;2023-12-20T13:11:11;6.70;99.90
935;DHT22;454;53.254;10.400;2023-12-20T13:13:38;6.70;99.90
935;DHT22;454;53.254;10.400;2023-12-20T13:16:05;6.60;99.90
935;DHT22;454;53.254;10.400;2023-12-20T13:18:32;6.60;99.90
935;DHT22;454;53.254;10.400;2023-12-20T13:20:58;6.60;99.90
935;DHT22;454;53.254;10.400;2023-12-20T13:23:25;6.50;99.90
935;DHT22;454;53.254;10.400;2023-12-20T13:25:52;6.50;99.90
935;DHT22;454;53.254;10.400;2023-12-20T13:28:20;6.50;99.90
935;DHT22;454;53.254;10.400;2023-12-20T13:30:46;6.50;99.90
935;DHT22;454;53.254;10.400;2023-12-20T13:33:13;6.50;99.90
935;DHT22;454;53.254;10.400;2023-12-20T13:35:40;6.40;99.90
935;DHT22;454;53.254;10.400;2023-12-20T13:38:07;6.40;99.90
935;DHT22;454;53.254;10.400;2023-12-20T13:40:34;6.40;99.90
935;DHT22;454;53.254;10.400;2023-12-20T13:43:00;6.30;99.90
935;DHT22;454;53.254;10.400;2023-12-20T13:45:29;6.30;99.90
935;DHT22;454;53.254;10.400;2023-12-20T13:47:56;6.30;99.90
935;DHT22;454;53.254;10.400;2023-12-20T13:50:24;6.30;99.90
935;DHT22;454;53.254;10.400;2023-12-20T13:52:50;6.30;99.90
935;DHT22;454;53.254;10.400;2023-12-20T13:55:16;6.30;99.90
935;DHT22;454;53.254;10.400;2023-12-20T13:57:46;6.30;99.90
935;DHT22;454;53.254;10.400;2023-12-20T14:00:14;6.30;99.90
935;DHT22;454;53.254;10.400;2023-12-20T14:02:43;6.30;99.90
935;DHT22;454;53.254;10.400;2023-12-20T14:05:09;6.30;99.90
935;DHT22;454;53.254;10.400;2023-12-20T14:07:36;6.30;99.90
935;DHT22;454;53.254;10.400;2023-12-20T14:10:04;6.30;99.90
935;DHT22;454;53.254;10.400;2023-12-20T14:12:31;6.30;99.90
935;DHT22;454;53.254;10.400;2023-12-20T14:15:01;6.30;99.90
935;DHT22;454;53.254;10.400;2023-12-20T14:17:28;6.30;99.90
935;DHT22;454;53.254;10.400;2023-12-20T14:19:57;6.30;99.90
935;DHT22;454;53.254;10.400;2023-12-20T14:22:24;6.30;99.90
935;DHT22;454;53.254;10.400;2023-12-20T14:24:51;6.30;99.90
935;DHT22;454;53.254;10.400;2023-12-20T14:27:18;6.30;99.90
935;DHT22;454;53.254;10.400;2023-12-20T14:29:48;6.30;99.90
935;DHT22;454;53.254;10.400;2023-12-20T14:32:14;6.30;99.90
935;DHT22;454;53.254;10.400;2023-12-20T14:34:41;6.30;99.90
935;DHT22;454;53.254;10.400;2023-12-20T14:37:09;6.30;99.90
935;DHT22;454;53.254;10.400;2023-12-20T14:39:36;6.20;99.90
935;DHT22;454;53.254;10.400;2023-12-20T14:42:06;6.20;99.90
935;DHT22;454;53.254;10.400;2023-12-20T14:44:36;6.20;99.90
935;DHT22;454;53.254;10.400;2023-12-20T14:47:03;6.20;99.90
935;DHT22;454;53.254;10.400;2023-12-20T14:49:30;6.20;99.90
935;DHT22;454;53.254;10.400;2023-12-20T14:51:57;6.20;99.90
935;DHT22;454;53.254;10.400;2023-12-20T14:54:26;6.20;99.90
935;DHT22;454;53.254;10.400;2023-12-20T14:56:52;6.10;99.90
935;DHT22;454;53.254;10.400;2023-12-20T14:59:19;6.10;99.90
935;DHT22;454;53.254;10.400;2023-12-20T15:01:47;6.10;99.90
935;DHT22;454;53.254;10.400;2023-12-20T15:04:14;6.10;99.90
935;DHT22;454;53.254;10.400;2023-12-20T15:06:40;6.00;99.90
935;DHT22;454;53.254;10.400;2023-12-20T15:09:07;6.10;99.90
935;DHT22;454;53.254;10.400;2023-12-20T15:11:36;6.00;99.90
935;DHT22;454;53.254;10.400;2023-12-20T15:14:03;6.10;99.90
935;DHT22;454;53.254;10.400;2023-12-20T15:16:29;6.00;99.90
935;DHT22;454;53.254;10.400;2023-12-20T15:18:56;6.00;99.90
935;DHT22;454;53.254;10.400;2023-12-20T15:21:23;6.00;99.90
935;DHT22;454;53.254;10.400;2023-12-20T15:23:57;5.90;99.90
935;DHT22;454;53.254;10.400;2023-12-20T15:26:31;5.90;99.90
935;DHT22;454;53.254;10.400;2023-12-20T15:28:59;5.90;99.90
935;DHT22;454;53.254;10.400;2023-12-20T15:31:26;5.90;99.90
935;DHT22;454;53.254;10.400;2023-12-20T15:33:53;5.90;99.90
935;DHT22;454;53.254;10.400;2023-12-20T15:36:20;6.00;99.90
935;DHT22;454;53.254;10.400;2023-12-20T15:38:47;6.00;99.90
935;DHT22;454;53.254;10.400;2023-12-20T15:41:17;6.00;99.90
935;DHT22;454;53.254;10.400;2023-12-20T15:43:44;6.00;99.90
935;DHT22;454;53.254;10.400;2023-12-20T15:46:13;6.00;99.90
935;DHT22;454;53.254;10.400;2023-12-20T15:48:40;6.00;99.90
935;DHT22;454;53.254;10.400;2023-12-20T15:51:07;6.00;99.90
935;DHT22;454;53.254;10.400;2023-12-20T15:53:35;6.00;99.90
935;DHT22;454;53.254;10.400;2023-12-20T15:56:02;6.00;99.90
935;DHT22;454;53.254;10.400;2023-12-20T15:58:29;6.00;99.90
935;DHT22;454;53.254;10.400;2023-12-20T16:00:57;6.00;99.90
935;DHT22;454;53.254;10.400;2023-12-20T16:03:25;6.00;99.90
935;DHT22;454;53.254;10.400;2023-12-20T16:05:52;5.90;99.90
935;DHT22;454;53.254;10.400;2023-12-20T16:08:19;5.90;99.90
935;DHT22;454;53.254;10.400;2023-12-20T16:10:46;5.90;99.90
935;DHT22;454;53.254;10.400;2023-12-20T16:13:12;5.90;99.90
935;DHT22;454;53.254;10.400;2023-12-20T16:15:39;5.80;99.90
935;DHT22;454;53.254;10.400;2023-12-20T16:18:06;5.80;99.90
935;DHT22;454;53.254;10.400;2023-12-20T16:20:37;5.80;99.90
935;DHT22;454;53.254;10.400;2023-12-20T16:23:04;5.80;99.90
935;DHT22;454;53.254;10.400;2023-12-20T16:25:31;5.80;99.90
935;DHT22;454;53.254;10.400;2023-12-20T16:27:58;5.80;99.90
935;DHT22;454;53.254;10.400;2023-12-20T16:30:25;5.80;99.90
935;DHT22;454;53.254;10.400;2023-12-20T16:32:51;5.70;99.90
935;DHT22;454;53.254;10.400;2023-12-20T16:35:18;5.70;99.90
935;DHT22;454;53.254;10.400;2023-12-20T16:37:47;5.80;99.90
935;DHT22;454;53.254;10.400;2023-12-20T16:40:14;5.80;99.90
935;DHT22;454;53.254;10.400;2023-12-20T16:42:41;5.80;99.90
935;DHT22;454;53.254;10.400;2023-12-20T16:45:08;5.80;99.90
935;DHT22;454;53.254;10.400;2023-12-20T16:47:35;5.80;99.90
935;DHT22;454;53.254;10.400;2023-12-20T16:50:02;5.80;99.90
935;DHT22;454;53.254;10.400;2023-12-20T16:52:32;5.80;99.90
935;DHT22;454;53.254;10.400;2023-12-20T16:55:01;5.80;99.90
935;DHT22;454;53.254;10.400;2023-12-20T16:57:27;5.80;99.90
935;DHT22;454;53.254;10.400;2023-12-20T16:59:54;5.80;99.90
935;DHT22;454;53.254;10.400;2023-12-20T17:02:21;5.80;99.90
935;DHT22;454;53.254;10.400;2023-12-20T17:04:48;5.80;99.90
935;DHT22;454;53.254;10.400;2023-12-20T17:07:15;5.80;99.90
935;DHT22;454;53.254;10.400;2023-12-20T17:09:42;5.80;99.90
935;DHT22;454;53.254;10.400;2023-12-20T17:12:11;5.80;99.90
935;DHT22;454;53.254;10.400;2023-12-20T17:14:38;5.80;99.90
935;DHT22;454;53.254;10.400;2023-12-20T17:17:05;5.70;99.90
935;DHT22;454;53.254;10.400;2023-12-20T17:19:33;5.80;99.90
935;DHT22;454;53.254;10.400;2023-12-20T17:22:00;5.80;99.90
935;DHT22;454;53.254;10.400;2023-12-20T17:24:28;5.80;99.90
935;DHT22;454;53.254;10.400;2023-12-20T17:26:55;5.80;99.90
935;DHT22;454;53.254;10.400;2023-12-20T17:29:23;5.80;99.90
935;DHT22;454;53.254;10.400;2023-12-20T17:31:50;5.80;99.90
935;DHT22;454;53.254;10.400;2023-12-20T17:34:16;5.80;99.90
935;DHT22;454;53.254;10.400;2023-12-20T17:36:43;5.80;99.90
935;DHT22;454;53.254;10.400;2023-12-20T17:39:12;5.90;99.90
935;DHT22;454;53.254;10.400;2023-12-20T17:41:39;5.90;99.90
935;DHT22;454;53.254;10.400;2023-12-20T17:44:06;5.90;99.90
935;DHT22;454;53.254;10.400;2023-12-20T17:46:35;5.90;99.90
935;DHT22;454;53.254;10.400;2023-12-20T17:49:01;5.90;99.90
935;DHT22;454;53.254;10.400;2023-12-20T17:51:29;5.90;99.90
935;DHT22;454;53.254;10.400;2023-12-20T17:53:56;5.90;99.90
935;DHT22;454;53.254;10.400;2023-12-20T17:56:27;5.90;99.90
935;DHT22;454;53.254;10.400;2023-12-20T17:58:53;5.90;99.90
935;DHT22;454;53.254;10.400;2023-12-20T18:01:20;6.00;99.90
935;DHT22;454;53.254;10.400;2023-12-20T18:03:48;6.00;99.90
935;DHT22;454;53.254;10.400;2023-12-20T18:06:15;6.00;99.90
935;DHT22;454;53.254;10.400;2023-12-20T18:08:42;6.00;99.90
935;DHT22;454;53.254;10.400;2023-12-20T18:11:09;5.90;99.90
935;DHT22;454;53.254;10.400;2023-12-20T18:13:36;5.90;99.90
935;DHT22;454;53.254;10.400;2023-12-20T18:19:26;5.90;99.90
935;DHT22;454;53.254;10.400;2023-12-20T18:21:53;5.90;99.90
935;DHT22;454;53.254;10.400;2023-12-20T18:24:20;5.80;99.90
935;DHT22;454;53.254;10.400;2023-12-20T18:26:47;5.80;99.90
935;DHT22;454;53.254;10.400;2023-12-20T18:29:14;5.80;99.90
935;DHT22;454;53.254;10.400;2023-12-20T18:31:42;5.80;99.90
935;DHT22;454;53.254;10.400;2023-12-20T18:34:11;5.80;99.90
935;DHT22;454;53.254;10.400;2023-12-20T18:36:39;5.80;99.90
935;DHT22;454;53.254;10.400;2023-12-20T18:39:08;5.80;99.90
935;DHT22;454;53.254;10.400;2023-12-20T18:41:35;5.80;99.90
935;DHT22;454;53.254;10.400;2023-12-20T18:44:01;5.80;99.90
935;DHT22;454;53.254;10.400;2023-12-20T18:46:29;5.80;99.90
935;DHT22;454;53.254;10.400;2023-12-20T18:48:55;5.70;99.90
935;DHT22;454;53.254;10.400;2023-12-20T18:51:22;5.70;99.90
935;DHT22;454;53.254;10.400;2023-12-20T18:53:50;5.70;99.90
935;DHT22;454;53.254;10.400;2023-12-20T18:56:19;5.70;99.90
935;DHT22;454;53.254;10.400;2023-12-20T18:58:46;5.70;99.90
935;DHT22;454;53.254;10.400;2023-12-20T19:01:13;5.80;99.90
935;DHT22;454;53.254;10.400;2023-12-20T19:03:40;5.80;99.90
935;DHT22;454;53.254;10.400;2023-12-20T19:06:07;5.80;99.90
935;DHT22;454;53.254;10.400;2023-12-20T19:08:34;5.80;99.90
935;DHT22;454;53.254;10.400;2023-12-20T19:11:03;5.80;99.90
935;DHT22;454;53.254;10.400;2023-12-20T19:13:30;5.80;99.90
935;DHT22;454;53.254;10.400;2023-12-20T19:15:57;5.80;99.90
935;DHT22;454;53.254;10.400;2023-12-20T19:18:24;5.80;99.90
935;DHT22;454;53.254;10.400;2023-12-20T19:20:52;5.80;99.90
935;DHT22;454;53.254;10.400;2023-12-20T19:23:19;5.80;99.90
935;DHT22;454;53.254;10.400;2023-12-20T19:25:46;5.80;99.90
935;DHT22;454;53.254;10.400;2023-12-20T19:28:14;5.80;99.90
935;DHT22;454;53.254;10.400;2023-12-20T19:30:41;5.80;99.90
935;DHT22;454;53.254;10.400;2023-12-20T19:33:07;5.90;99.90
935;DHT22;454;53.254;10.400;2023-12-20T19:35:34;5.90;99.90
935;DHT22;454;53.254;10.400;2023-12-20T19:38:01;5.90;99.90
935;DHT22;454;53.254;10.400;2023-12-20T19:40:27;5.90;99.90
935;DHT22;454;53.254;10.400;2023-12-20T19:42:54;5.90;99.90
935;DHT22;454;53.254;10.400;2023-12-20T19:45:22;5.90;99.90
935;DHT22;454;53.254;10.400;2023-12-20T19:47:49;5.90;99.90
935;DHT22;454;53.254;10.400;2023-12-20T19:50:16;6.00;99.90
935;DHT22;454;53.254;10.400;2023-12-20T19:52:43;5.90;99.90
935;DHT22;454;53.254;10.400;2023-12-20T19:55:09;5.90;99.90
935;DHT22;454;53.254;10.400;2023-12-20T19:57:36;5.90;99.90
935;DHT22;454;53.254;10.400;2023-12-20T20:00:04;5.90;99.90
935;DHT22;454;53.254;10.400;2023-12-20T20:02:32;5.80;99.90
935;DHT22;454;53.254;10.400;2023-12-20T20:05:01;5.80;99.90
935;DHT22;454;53.254;10.400;2023-12-20T20:07:27;5.80;99.90
935;DHT22;454;53.254;10.400;2023-12-20T20:09:54;5.80;99.90
935;DHT22;454;53.254;10.400;2023-12-20T20:12:21;5.80;99.90
935;DHT22;454;53.254;10.400;2023-12-20T20:14:47;5.80;99.90
935;DHT22;454;53.254;10.400;2023-12-20T20:17:14;5.80;99.90
935;DHT22;454;53.254;10.400;2023-12-20T20:19:42;5.80;99.90
935;DHT22;454;53.254;10.400;2023-12-20T20:22:09;5.70;99.90
935;DHT22;454;53.254;10.400;2023-12-20T20:24:37;5.70;99.90
935;DHT22;454;53.254;10.400;2023-12-20T20:27:04;5.70;99.90
935;DHT22;454;53.254;10.400;2023-12-20T20:29:30;5.70;99.90
935;DHT22;454;53.254;10.400;2023-12-20T20:31:57;5.70;99.90
935;DHT22;454;53.254;10.400;2023-12-20T20:34:24;5.70;99.90
935;DHT22;454;53.254;10.400;2023-12-20T20:36:54;5.70;99.90
935;DHT22;454;53.254;10.400;2023-12-20T20:39:21;5.70;99.90
935;DHT22;454;53.254;10.400;2023-12-20T20:41:48;5.70;99.90
935;DHT22;454;53.254;10.400;2023-12-20T20:44:15;5.70;99.90
935;DHT22;454;53.254;10.400;2023-12-20T20:46:42;5.70;99.90
935;DHT22;454;53.254;10.400;2023-12-20T20:49:10;5.70;99.90
935;DHT22;454;53.254;10.400;2023-12-20T20:51:36;5.70;99.90
935;DHT22;454;53.254;10.400;2023-12-20T20:54:04;5.70;99.90
935;DHT22;454;53.254;10.400;2023-12-20T20:56:31;5.70;99.90
935;DHT22;454;53.254;10.400;2023-12-20T20:58:58;5.70;99.90
935;DHT22;454;53.254;10.400;2023-12-20T21:01:25;5.70;99.90
935;DHT22;454;53.254;10.400;2023-12-20T21:03:51;5.70;99.90
935;DHT22;454;53.254;10.400;2023-12-20T21:06:18;5.70;99.90
935;DHT22;454;53.254;10.400;2023-12-20T21:08:46;5.70;99.90
935;DHT22;454;53.254;10.400;2023-12-20T21:11:14;5.70;99.90
935;DHT22;454;53.254;10.400;2023-12-20T21:13:44;5.70;99.90
935;DHT22;454;53.254;10.400;2023-12-20T21:16:13;5.70;99.90
935;DHT22;454;53.254;10.400;2023-12-20T21:18:39;5.70;99.90
935;DHT22;454;53.254;10.400;2023-12-20T21:21:06;5.70;99.90
935;DHT22;454;53.254;10.400;2023-12-20T21:23:33;5.70;99.90
935;DHT22;454;53.254;10.400;2023-12-20T21:25:59;5.70;99.90
935;DHT22;454;53.254;10.400;2023-12-20T21:28:29;5.80;99.90
935;DHT22;454;53.254;10.400;2023-12-20T21:30:56;5.80;99.90
935;DHT22;454;53.254;10.400;2023-12-20T21:33:22;5.80;99.90
935;DHT22;454;53.254;10.400;2023-12-20T21:35:49;5.80;99.90
935;DHT22;454;53.254;10.400;2023-12-20T21:38:16;5.80;99.90